^^
Datos históricos de la estación: Murcia-Puente Tocinos
Diario Informe para Febrero 8, 2019 Unidades:  Ambas    Ingés   Métrico
Diario Semanal Mensual Anual
  Máxima: Mínima: Promedio:
Temperatura: 63.9 °F /  17.7 °C 52.5 °F /  11.4 °C 58.3 °F /  14.6 °C
Punto de rocio: 38.5 °F /  3.6 °C 32.5 °F /  0.3 °C 34.5 °F /  1.4 °C
Humedad: 58% 32% 41%
Velocidad viento: 13.5mph /  21.7km/h - 7.8mph /  12.5km/h
Racha viento: 25.3mph /  40.7km/h - -
Viento- - OSO
Presión: 30.1 in /  1017.9 hPa 29.8 in /  1009.7 hPa -
Precipitación: 0 in /  0.0 mm    
 
 
Tabla de datos para Febrero 8, 2019
Hora Temperatura Punto de rocio Presión Viento Velocidad viento Racha viento Humedad Intensidad lluvia(por hora) Nubes
00:04 59.5 °F /  15.3 °C 37 °F /  2.8 °C 29.8in /  1010.4hPa OSO 6mph /  9.7km/h 13.8mph /  22.2km/h 43% 0in /  0.0mm
00:09 59.5 °F /  15.3 °C 37 °F /  2.8 °C 29.8in /  1010.5hPa OSO 6.2mph /  10km/h 14mph /  22.5km/h 43% 0in /  0.0mm
00:14 59.4 °F /  15.2 °C 36.9 °F /  2.7 °C 29.8in /  1010.5hPa OSO 6.2mph /  10km/h 9.2mph /  14.8km/h 43% 0in /  0.0mm
00:19 59.2 °F /  15.1 °C 36.7 °F /  2.6 °C 29.8in /  1010.5hPa OSO 6.2mph /  10km/h 10.4mph /  16.7km/h 43% 0in /  0.0mm
00:24 59 °F /  15 °C 36.5 °F /  2.5 °C 29.8in /  1010.5hPa SO 5.5mph /  8.9km/h 10mph /  16.1km/h 43% 0in /  0.0mm
00:29 58.8 °F /  14.9 °C 36.3 °F /  2.4 °C 29.8in /  1010.3hPa OSO 5.4mph /  8.7km/h 10.7mph /  17.2km/h 42.9% 0in /  0.0mm
00:34 58.8 °F /  14.9 °C 36 °F /  2.2 °C 29.8in /  1010.3hPa OSO 5.2mph /  8.4km/h 11mph /  17.7km/h 42.3% 0in /  0.0mm
00:39 58.6 °F /  14.8 °C 35.6 °F /  2 °C 29.8in /  1010.3hPa OSO 5.2mph /  8.4km/h 11.8mph /  19km/h 42% 0in /  0.0mm
00:44 58.6 °F /  14.8 °C 35.6 °F /  2 °C 29.8in /  1010.2hPa OSO 6mph /  9.7km/h 12mph /  19.3km/h 42% 0in /  0.0mm
00:49 58.5 °F /  14.7 °C 34.9 °F /  1.6 °C 29.8in /  1010.2hPa OSO 6.2mph /  10km/h 10.4mph /  16.7km/h 41.2% 0in /  0.0mm
00:54 58.5 °F /  14.7 °C 34.7 °F /  1.5 °C 29.8in /  1010.2hPa OSO 5mph /  8km/h 11.5mph /  18.5km/h 41% 0in /  0.0mm
00:59 58.3 °F /  14.6 °C 34.7 °F /  1.5 °C 29.8in /  1010.0hPa OSO 4.7mph /  7.6km/h 12mph /  19.3km/h 41% 0in /  0.0mm
01:04 58.5 °F /  14.7 °C 34.2 °F /  1.2 °C 29.8in /  1010.0hPa OSO 5.7mph /  9.2km/h 10.7mph /  17.2km/h 40.1% 0in /  0.0mm
01:09 58.5 °F /  14.7 °C 34.2 °F /  1.2 °C 29.8in /  1010.0hPa OSO 5.9mph /  9.5km/h 11.4mph /  18.3km/h 40% 0in /  0.0mm
01:14 58.5 °F /  14.7 °C 34.2 °F /  1.2 °C 29.8in /  1010.0hPa OSO 6.2mph /  9.9km/h 11.5mph /  18.5km/h 40% 0in /  0.0mm
01:19 58.5 °F /  14.7 °C 34 °F /  1.1 °C 29.8in /  1010.0hPa OSO 6.2mph /  10km/h 12.7mph /  20.4km/h 39.7% 0in /  0.0mm
01:24 58.6 °F /  14.8 °C 34.2 °F /  1.2 °C 29.8in /  1010.0hPa OSO 6.8mph /  10.9km/h 13mph /  20.9km/h 39.7% 0in /  0.0mm
01:29 58.6 °F /  14.8 °C 34.3 °F /  1.3 °C 29.8in /  1010.0hPa OSO 6.9mph /  11.1km/h 13.8mph /  22.2km/h 40% 0in /  0.0mm
01:34 58.6 °F /  14.8 °C 34.3 °F /  1.3 °C 29.8in /  1010.0hPa OSO 6.9mph /  11.1km/h 14mph /  22.5km/h 40% 0in /  0.0mm
01:39 58.5 °F /  14.7 °C 34.5 °F /  1.4 °C 29.8in /  1010.0hPa ONO 6.9mph /  11.1km/h 13mph /  20.9km/h 40.5% 0in /  0.0mm
01:44 58.1 °F /  14.5 °C 34.9 °F /  1.6 °C 29.8in /  1010.0hPa NO 5.2mph /  8.3km/h 9mph /  14.5km/h 41.6% 0in /  0.0mm
01:49 57.2 °F /  14 °C 34.9 °F /  1.6 °C 29.8in /  1010.0hPa ONO 4.7mph /  7.6km/h 8.5mph /  13.7km/h 42.8% 0in /  0.0mm
01:54 56.3 °F /  13.5 °C 34.9 °F /  1.6 °C 29.8in /  1010.0hPa ONO 4.4mph /  7.1km/h 9mph /  14.5km/h 44.4% 0in /  0.0mm
01:59 55.8 °F /  13.2 °C 35.1 °F /  1.7 °C 29.8in /  1009.9hPa ONO 4.3mph /  6.9km/h 10.2mph /  16.4km/h 45.5% 0in /  0.0mm
02:04 55.4 °F /  13 °C 34.9 °F /  1.6 °C 29.8in /  1009.9hPa ONO 4.7mph /  7.5km/h 10.4mph /  16.7km/h 46% 0in /  0.0mm
02:09 55.2 °F /  12.9 °C 34.9 °F /  1.6 °C 29.8in /  1010.0hPa Oeste 4.7mph /  7.6km/h 8.1mph /  13km/h 46% 0in /  0.0mm
02:14 55.2 °F /  12.9 °C 34.9 °F /  1.6 °C 29.8in /  1010.0hPa Oeste 4.7mph /  7.6km/h 8mph /  12.9km/h 46.1% 0in /  0.0mm
02:19 55 °F /  12.8 °C 35.2 °F /  1.8 °C 29.8in /  1010.0hPa Oeste 4.7mph /  7.6km/h 7mph /  11.3km/h 47% 0in /  0.0mm
02:24 55 °F /  12.8 °C 35.2 °F /  1.8 °C 29.8in /  1010.0hPa Oeste 3.9mph /  6.2km/h 6mph /  9.7km/h 47% 0in /  0.0mm
02:29 55 °F /  12.8 °C 35.2 °F /  1.8 °C 29.8in /  1009.8hPa ONO 3.6mph /  5.8km/h 6mph /  9.7km/h 47% 0in /  0.0mm
02:34 55 °F /  12.8 °C 35.2 °F /  1.8 °C 29.8in /  1009.8hPa Oeste 3.2mph /  5.1km/h 6.2mph /  10km/h 47% 0in /  0.0mm
02:39 54.9 °F /  12.7 °C 35.1 °F /  1.7 °C 29.8in /  1009.8hPa ONO 3.1mph /  5km/h 8.1mph /  13km/h 47% 0in /  0.0mm
02:44 54.9 °F /  12.7 °C 35.1 °F /  1.7 °C 29.8in /  1009.7hPa ONO 3.9mph /  6.2km/h 8mph /  12.9km/h 47% 0in /  0.0mm
02:49 54.9 °F /  12.7 °C 35.1 °F /  1.7 °C 29.8in /  1009.7hPa Oeste 4mph /  6.5km/h 8.1mph /  13km/h 47.1% 0in /  0.0mm
02:54 54.9 °F /  12.7 °C 35.2 °F /  1.8 °C 29.8in /  1009.8hPa ONO 4.6mph /  7.4km/h 8mph /  12.9km/h 47.4% 0in /  0.0mm
02:59 55 °F /  12.8 °C 35.2 °F /  1.8 °C 29.8in /  1009.8hPa ONO 4.7mph /  7.6km/h 9.2mph /  14.8km/h 47.2% 0in /  0.0mm
03:04 55 °F /  12.8 °C 35.2 °F /  1.8 °C 29.8in /  1009.8hPa ONO 4.3mph /  7km/h 9.2mph /  14.8km/h 47% 0in /  0.0mm
03:09 54.9 °F /  12.7 °C 35.6 °F /  2 °C 29.8in /  1009.9hPa NO 4.3mph /  6.9km/h 10.4mph /  16.7km/h 47.9% 0in /  0.0mm
03:14 54.5 °F /  12.5 °C 35.4 °F /  1.9 °C 29.8in /  1009.9hPa NO 5.2mph /  8.3km/h 10mph /  16.1km/h 48.2% 0in /  0.0mm
03:19 54.3 °F /  12.4 °C 35.4 °F /  1.9 °C 29.8in /  1009.9hPa ONO 5.4mph /  8.7km/h 9.7mph /  15.6km/h 49% 0in /  0.0mm
03:24 54.3 °F /  12.4 °C 35.4 °F /  1.9 °C 29.8in /  1010.0hPa ONO 5.8mph /  9.4km/h 11.4mph /  18.3km/h 49% 0in /  0.0mm
03:29 54.5 °F /  12.5 °C 35.8 °F /  2.1 °C 29.8in /  1010.0hPa ONO 5.9mph /  9.5km/h 12mph /  19.3km/h 49% 0in /  0.0mm
03:34 54.7 °F /  12.6 °C 36.1 °F /  2.3 °C 29.8in /  1010.0hPa ONO 6.3mph /  10.2km/h 12mph /  19.3km/h 49.5% 0in /  0.0mm
03:39 54.5 °F /  12.5 °C 36.5 °F /  2.5 °C 29.8in /  1010.2hPa NO 6.4mph /  10.3km/h 10mph /  16.1km/h 50.4% 0in /  0.0mm
03:44 54.1 °F /  12.3 °C 36.5 °F /  2.5 °C 29.8in /  1010.2hPa NNO 4.7mph /  7.6km/h 8mph /  12.9km/h 51.2% 0in /  0.0mm
03:49 53.8 °F /  12.1 °C 36.9 °F /  2.7 °C 29.8in /  1010.2hPa NO 4.3mph /  6.9km/h 5.8mph /  9.3km/h 52.6% 0in /  0.0mm
03:54 53.6 °F /  12 °C 37.4 °F /  3 °C 29.8in /  1010.2hPa ONO 3.4mph /  5.4km/h 11.5mph /  18.5km/h 54.2% 0in /  0.0mm
03:59 54 °F /  12.2 °C 37.9 °F /  3.3 °C 29.8in /  1010.2hPa ONO 3.1mph /  5km/h 12mph /  19.3km/h 54.5% 0in /  0.0mm
04:04 54.5 °F /  12.5 °C 38.1 °F /  3.4 °C 29.8in /  1010.2hPa ONO 6mph /  9.6km/h 12mph /  19.3km/h 54% 0in /  0.0mm
04:09 54.7 °F /  12.6 °C 38.5 °F /  3.6 °C 29.8in /  1010.2hPa ONO 6.4mph /  10.3km/h 9.7mph /  15.6km/h 54% 0in /  0.0mm
04:14 54.7 °F /  12.6 °C 38.5 °F /  3.6 °C 29.8in /  1010.1hPa ONO 5.6mph /  9km/h 10mph /  16.1km/h 54% 0in /  0.0mm
04:19 54.3 °F /  12.4 °C 38.5 °F /  3.6 °C 29.8in /  1010.1hPa ONO 5.4mph /  8.7km/h 9mph /  14.5km/h 54.8% 0in /  0.0mm
04:24 54.1 °F /  12.3 °C 38.3 °F /  3.5 °C 29.8in /  1010.2hPa ONO 5.2mph /  8.4km/h 8.5mph /  13.7km/h 55% 0in /  0.0mm
04:29 54 °F /  12.2 °C 38.1 °F /  3.4 °C 29.8in /  1010.2hPa ONO 5.2mph /  8.4km/h 10.4mph /  16.7km/h 55% 0in /  0.0mm
04:34 54 °F /  12.2 °C 38.3 °F /  3.5 °C 29.8in /  1010.2hPa ONO 5.8mph /  9.3km/h 10mph /  16.1km/h 55.4% 0in /  0.0mm
04:39 54 °F /  12.2 °C 38.5 °F /  3.6 °C 29.8in /  1010.3hPa ONO 5.9mph /  9.5km/h 10.7mph /  17.2km/h 56% 0in /  0.0mm
04:44 53.8 °F /  12.1 °C 38.5 °F /  3.6 °C 29.8in /  1010.3hPa ONO 5.9mph /  9.5km/h 11mph /  17.7km/h 56% 0in /  0.0mm
04:49 53.8 °F /  12.1 °C 38.5 °F /  3.6 °C 29.8in /  1010.3hPa ONO 5.9mph /  9.5km/h 11mph /  17.7km/h 56% 0in /  0.0mm
04:54 54 °F /  12.2 °C 38.5 °F /  3.6 °C 29.8in /  1010.6hPa ONO 6.3mph /  10.1km/h 11mph /  17.7km/h 56% 0in /  0.0mm
04:59 53.8 °F /  12.1 °C 38.5 °F /  3.6 °C 29.8in /  1010.6hPa Oeste 6.4mph /  10.3km/h 11.4mph /  18.3km/h 56% 0in /  0.0mm
05:04 53.8 °F /  12.1 °C 38.3 °F /  3.5 °C 29.8in /  1010.6hPa Oeste 6.4mph /  10.3km/h 12mph /  19.3km/h 56% 0in /  0.0mm
05:09 53.4 °F /  11.9 °C 38.1 °F /  3.4 °C 29.8in /  1010.7hPa Oeste 6.4mph /  10.3km/h 12mph /  19.3km/h 56% 0in /  0.0mm
05:14 53.4 °F /  11.9 °C 38.1 °F /  3.4 °C 29.8in /  1010.7hPa Oeste 6mph /  9.7km/h 10.4mph /  16.7km/h 56% 0in /  0.0mm
05:19 53.2 °F /  11.8 °C 37.9 °F /  3.3 °C 29.8in /  1010.7hPa Oeste 5.9mph /  9.5km/h 10mph /  16.1km/h 56% 0in /  0.0mm
05:24 53.2 °F /  11.8 °C 37.9 °F /  3.3 °C 29.9in /  1011.0hPa Oeste 5.5mph /  8.9km/h 8.5mph /  13.7km/h 56% 0in /  0.0mm
05:29 53.2 °F /  11.8 °C 37.9 °F /  3.3 °C 29.9in /  1011.0hPa Oeste 5.4mph /  8.7km/h 9mph /  14.5km/h 56% 0in /  0.0mm
05:34 53.2 °F /  11.8 °C 37.9 °F /  3.3 °C 29.9in /  1011.0hPa Oeste 4.3mph /  6.9km/h 10.4mph /  16.7km/h 56% 0in /  0.0mm
05:39 53.2 °F /  11.8 °C 37.9 °F /  3.3 °C 29.9in /  1011.2hPa Oeste 4mph /  6.5km/h 10mph /  16.1km/h 56% 0in /  0.0mm
05:44 53.4 °F /  11.9 °C 37.8 °F /  3.2 °C 29.9in /  1011.2hPa Oeste 4.6mph /  7.4km/h 9.2mph /  14.8km/h 55.4% 0in /  0.0mm
05:49 53.4 °F /  11.9 °C 37.8 °F /  3.2 °C 29.9in /  1011.2hPa Oeste 4.7mph /  7.6km/h 9mph /  14.5km/h 55% 0in /  0.0mm
05:54 53.6 °F /  12 °C 37.4 °F /  3 °C 29.9in /  1011.3hPa Oeste 5.3mph /  8.5km/h 8.5mph /  13.7km/h 54% 0in /  0.0mm
05:59 53.8 °F /  12.1 °C 37.6 °F /  3.1 °C 29.9in /  1011.3hPa OSO 5.4mph /  8.7km/h 9mph /  14.5km/h 54% 0in /  0.0mm
06:04 53.8 °F /  12.1 °C 37 °F /  2.8 °C 29.9in /  1011.3hPa OSO 4.5mph /  7.2km/h 8.1mph /  13km/h 53.1% 0in /  0.0mm
06:09 53.8 °F /  12.1 °C 37 °F /  2.8 °C 29.9in /  1011.5hPa Sur 4.3mph /  6.9km/h 8mph /  12.9km/h 53% 0in /  0.0mm
06:14 53.8 °F /  12.1 °C 37.4 °F /  3 °C 29.9in /  1011.5hPa SSE 3.4mph /  5.4km/h 6mph /  9.7km/h 53.6% 0in /  0.0mm
06:19 53.8 °F /  12.1 °C 38.1 °F /  3.4 °C 29.9in /  1011.5hPa SE 3.1mph /  5km/h 5mph /  8km/h 55.4% 0in /  0.0mm
06:24 53.4 °F /  11.9 °C 38.1 °F /  3.4 °C 29.9in /  1011.5hPa SE 2.9mph /  4.7km/h 5mph /  8km/h 56.1% 0in /  0.0mm
06:29 53.1 °F /  11.7 °C 38.3 °F /  3.5 °C 29.9in /  1011.4hPa SE 2.9mph /  4.7km/h 5mph /  8km/h 57% 0in /  0.0mm
06:34 53.1 °F /  11.7 °C 38.5 °F /  3.6 °C 29.9in /  1011.4hPa ESE 2.5mph /  4km/h 5mph /  8km/h 57.6% 0in /  0.0mm
06:39 52.9 °F /  11.6 °C 38.5 °F /  3.6 °C 29.9in /  1011.4hPa ESE 2.4mph /  3.9km/h 5.4mph /  8.7km/h 57.9% 0in /  0.0mm
06:44 52.7 °F /  11.5 °C 38.3 °F /  3.5 °C 29.9in /  1011.4hPa ESE 2.4mph /  3.9km/h 6mph /  9.7km/h 58% 0in /  0.0mm
06:49 52.5 °F /  11.4 °C 37.6 °F /  3.1 °C 29.9in /  1011.4hPa Sur 2.4mph /  3.9km/h 5.9mph /  9.5km/h 56.8% 0in /  0.0mm
06:54 52.9 °F /  11.6 °C 37.2 °F /  2.9 °C 29.9in /  1011.5hPa Oeste 2.8mph /  4.5km/h 6mph /  9.7km/h 55.4% 0in /  0.0mm
06:59 53.1 °F /  11.7 °C 37.2 °F /  2.9 °C 29.9in /  1011.5hPa OSO 2.9mph /  4.7km/h 6mph /  9.7km/h 54.9% 0in /  0.0mm
07:04 53.1 °F /  11.7 °C 36.9 °F /  2.7 °C 29.9in /  1011.5hPa Oeste 3mph /  4.9km/h 8.7mph /  14km/h 54.2% 0in /  0.0mm
07:09 53.2 °F /  11.8 °C 36.3 °F /  2.4 °C 29.9in /  1011.6hPa Oeste 3.1mph /  5km/h 15mph /  24.1km/h 52.8% 0in /  0.0mm
07:14 53.6 °F /  12 °C 36 °F /  2.2 °C 29.9in /  1011.6hPa Oeste 5.4mph /  8.7km/h 15mph /  24.1km/h 51.2% 0in /  0.0mm
07:19 54 °F /  12.2 °C 35.8 °F /  2.1 °C 29.9in /  1011.6hPa Oeste 5.9mph /  9.5km/h 17.3mph /  27.8km/h 49.9% 0in /  0.0mm
07:24 54.5 °F /  12.5 °C 35.4 °F /  1.9 °C 29.9in /  1011.6hPa Oeste 8.1mph /  13.1km/h 18.5mph /  29.8km/h 48.7% 0in /  0.0mm
07:29 54.9 °F /  12.7 °C 35.2 °F /  1.8 °C 29.9in /  1011.6hPa Oeste 8.7mph /  14km/h 19.7mph /  31.7km/h 47.5% 0in /  0.0mm
07:34 55 °F /  12.8 °C 35.2 °F /  1.8 °C 29.9in /  1011.6hPa Oeste 10.3mph /  16.6km/h 20mph /  32.2km/h 47% 0in /  0.0mm
07:39 55.2 °F /  12.9 °C 35.1 °F /  1.7 °C 29.9in /  1011.9hPa Oeste 10.7mph /  17.2km/h 21.9mph /  35.2km/h 46.4% 0in /  0.0mm
07:44 55.2 °F /  12.9 °C 35.1 °F /  1.7 °C 29.9in /  1011.9hPa Oeste 10.7mph /  17.2km/h 22mph /  35.4km/h 46.7% 0in /  0.0mm
07:49 55 °F /  12.8 °C 34.9 °F /  1.6 °C 29.9in /  1011.9hPa Oeste 10.7mph /  17.2km/h 17mph /  27.4km/h 46.4% 0in /  0.0mm
07:54 55 °F /  12.8 °C 34.7 °F /  1.5 °C 29.9in /  1011.9hPa Oeste 8.9mph /  14.3km/h 16.1mph /  25.9km/h 46.2% 0in /  0.0mm
07:59 54.9 °F /  12.7 °C 34.5 °F /  1.4 °C 29.9in /  1011.9hPa OSO 8.5mph /  13.7km/h 16mph /  25.7km/h 46% 0in /  0.0mm
08:04 54.9 °F /  12.7 °C 34.5 °F /  1.4 °C 29.9in /  1011.9hPa OSO 8.1mph /  13.1km/h 16.3mph /  26.2km/h 46% 0in /  0.0mm
08:09 55 °F /  12.8 °C 34.5 °F /  1.4 °C 29.9in /  1011.9hPa OSO 8.1mph /  13km/h 16.1mph /  25.9km/h 46% 0in /  0.0mm
08:14 55 °F /  12.8 °C 34.5 °F /  1.4 °C 29.9in /  1011.9hPa Oeste 8.1mph /  13km/h 16.1mph /  25.9km/h 46% 0in /  0.0mm
08:19 55 °F /  12.8 °C 34.7 °F /  1.5 °C 29.9in /  1011.9hPa OSO 8.1mph /  13km/h 18.4mph /  29.6km/h 46% 0in /  0.0mm
08:24 55.2 °F /  12.9 °C 34.9 °F /  1.6 °C 29.9in /  1012.0hPa OSO 9mph /  14.5km/h 18mph /  29km/h 46% 0in /  0.0mm
08:29 55.4 °F /  13 °C 35.1 °F /  1.7 °C 29.9in /  1012.0hPa OSO 9.2mph /  14.8km/h 17.8mph /  28.6km/h 46% 0in /  0.0mm
08:34 55.6 °F /  13.1 °C 35.1 °F /  1.7 °C 29.9in /  1012.0hPa Oeste 9.6mph /  15.5km/h 18.5mph /  29.8km/h 46% 0in /  0.0mm
08:39 55.6 °F /  13.1 °C 35.1 °F /  1.7 °C 29.9in /  1012.4hPa Oeste 9.7mph /  15.6km/h 19mph /  30.6km/h 46% 0in /  0.0mm
08:44 55.8 °F /  13.2 °C 35.2 °F /  1.8 °C 29.9in /  1012.4hPa Oeste 9.3mph /  14.9km/h 20.4mph /  32.8km/h 46% 0in /  0.0mm
08:49 55.9 °F /  13.3 °C 35.4 °F /  1.9 °C 29.9in /  1012.4hPa Oeste 9.2mph /  14.8km/h 21mph /  33.8km/h 46% 0in /  0.0mm
08:54 55.9 °F /  13.3 °C 35.4 °F /  1.9 °C 29.9in /  1012.8hPa Oeste 9.6mph /  15.4km/h 21.9mph /  35.2km/h 46% 0in /  0.0mm
08:59 56.1 °F /  13.4 °C 35.6 °F /  2 °C 29.9in /  1012.8hPa ONO 9.7mph /  15.6km/h 22mph /  35.4km/h 46% 0in /  0.0mm
09:04 56.3 °F /  13.5 °C 35.8 °F /  2.1 °C 29.9in /  1012.8hPa ONO 9.7mph /  15.6km/h 15mph /  24.1km/h 46% 0in /  0.0mm
09:09 56.5 °F /  13.6 °C 35.8 °F /  2.1 °C 29.9in /  1013.1hPa ONO 9.7mph /  15.6km/h 15.6mph /  25.1km/h 45.8% 0in /  0.0mm
09:14 56.5 °F /  13.6 °C 35.8 °F /  2.1 °C 29.9in /  1013.1hPa ONO 8.9mph /  14.3km/h 16.3mph /  26.2km/h 45.7% 0in /  0.0mm
09:19 56.5 °F /  13.6 °C 36 °F /  2.2 °C 29.9in /  1013.1hPa ONO 8.7mph /  14km/h 16mph /  25.7km/h 46% 0in /  0.0mm
09:24 56.5 °F /  13.6 °C 36 °F /  2.2 °C 29.9in /  1013.1hPa ONO 8.7mph /  14km/h 20.1mph /  32.3km/h 45.9% 0in /  0.0mm
09:29 56.5 °F /  13.6 °C 35.4 °F /  1.9 °C 29.9in /  1013.1hPa ONO 8.7mph /  14km/h 21mph /  33.8km/h 45.1% 0in /  0.0mm
09:34 56.5 °F /  13.6 °C 36 °F /  2.2 °C 29.9in /  1013.1hPa ONO 10.9mph /  17.5km/h 21mph /  33.8km/h 45.8% 0in /  0.0mm
09:39 56.7 °F /  13.7 °C 35.6 °F /  2 °C 29.9in /  1013.1hPa ONO 11.4mph /  18.4km/h 19.7mph /  31.7km/h 45.1% 0in /  0.0mm
09:44 56.7 °F /  13.7 °C 35.6 °F /  2 °C 29.9in /  1013.0hPa ONO 10.3mph /  16.5km/h 20mph /  32.2km/h 45.3% 0in /  0.0mm
09:49 56.7 °F /  13.7 °C 35.6 °F /  2 °C 29.9in /  1013.0hPa ONO 10mph /  16.1km/h 20mph /  32.2km/h 45.2% 0in /  0.0mm
09:54 56.8 °F /  13.8 °C 35.2 °F /  1.8 °C 29.9in /  1013.0hPa Oeste 8.9mph /  14.4km/h 22.3mph /  35.9km/h 44.3% 0in /  0.0mm
09:59 57 °F /  13.9 °C 35.1 °F /  1.7 °C 29.9in /  1012.8hPa ONO 8.7mph /  14km/h 22mph /  35.4km/h 43.6% 0in /  0.0mm
10:04 57 °F /  13.9 °C 34.9 °F /  1.6 °C 29.9in /  1012.8hPa ONO 11.7mph /  18.8km/h 19mph /  30.6km/h 43.2% 0in /  0.0mm
10:09 57.2 °F /  14 °C 34.9 °F /  1.6 °C 29.9in /  1013.2hPa ONO 12.3mph /  19.8km/h 19mph /  30.6km/h 43% 0in /  0.0mm
10:14 57.4 °F /  14.1 °C 35.1 °F /  1.7 °C 29.9in /  1013.2hPa ONO 11.9mph /  19.2km/h 18mph /  29km/h 43% 0in /  0.0mm
10:19 57.6 °F /  14.2 °C 34.9 °F /  1.6 °C 29.9in /  1013.2hPa ONO 11.8mph /  19km/h 24.2mph /  38.9km/h 42.2% 0in /  0.0mm
10:24 57.6 °F /  14.2 °C 34.3 °F /  1.3 °C 29.9in /  1013.4hPa Oeste 10.1mph /  16.2km/h 24mph /  38.6km/h 41.5% 0in /  0.0mm
10:29 57.6 °F /  14.2 °C 34.3 °F /  1.3 °C 29.9in /  1013.4hPa Oeste 9.7mph /  15.6km/h 22mph /  35.4km/h 41.5% 0in /  0.0mm
10:34 57.7 °F /  14.3 °C 34.5 °F /  1.4 °C 29.9in /  1013.4hPa ONO 11.1mph /  17.8km/h 20mph /  32.2km/h 41.6% 0in /  0.0mm
10:39 57.9 °F /  14.4 °C 34.3 °F /  1.3 °C 29.9in /  1013.6hPa Oeste 11.4mph /  18.4km/h 20.1mph /  32.3km/h 41% 0in /  0.0mm
10:44 57.9 °F /  14.4 °C 34.2 °F /  1.2 °C 29.9in /  1013.6hPa Oeste 10.3mph /  16.5km/h 21mph /  33.8km/h 40.6% 0in /  0.0mm
10:49 58.3 °F /  14.6 °C 34.2 °F /  1.2 °C 29.9in /  1013.6hPa ONO 10mph /  16.1km/h 20.8mph /  33.5km/h 40.2% 0in /  0.0mm
10:54 58.1 °F /  14.5 °C 34 °F /  1.1 °C 29.9in /  1013.7hPa ONO 10mph /  16.1km/h 21mph /  33.8km/h 40.2% 0in /  0.0mm
10:59 58.3 °F /  14.6 °C 34 °F /  1.1 °C 29.9in /  1013.7hPa ONO 10mph /  16.1km/h 18.4mph /  29.6km/h 40% 0in /  0.0mm
11:04 58.5 °F /  14.7 °C 34.2 °F /  1.2 °C 29.9in /  1013.7hPa ONO 8.7mph /  14km/h 20.1mph /  32.3km/h 39.9% 0in /  0.0mm
11:09 58.6 °F /  14.8 °C 34 °F /  1.1 °C 29.9in /  1013.7hPa ONO 8.5mph /  13.7km/h 23mph /  37km/h 39.3% 0in /  0.0mm
11:14 58.8 °F /  14.9 °C 34 °F /  1.1 °C 29.9in /  1013.7hPa ONO 10.7mph /  17.2km/h 23mph /  37km/h 39.1% 0in /  0.0mm
11:19 58.8 °F /  14.9 °C 34 °F /  1.1 °C 29.9in /  1013.7hPa ONO 11.2mph /  18km/h 24.6mph /  39.6km/h 39% 0in /  0.0mm
11:24 58.8 °F /  14.9 °C 33.8 °F /  1 °C 29.9in /  1013.9hPa ONO 12.7mph /  20.4km/h 25mph /  40.2km/h 39% 0in /  0.0mm
11:29 58.8 °F /  14.9 °C 34 °F /  1.1 °C 29.9in /  1013.9hPa Oeste 13mph /  20.9km/h 23mph /  37km/h 39.1% 0in /  0.0mm
11:34 59.2 °F /  15.1 °C 34.2 °F /  1.2 °C 29.9in /  1013.9hPa Oeste 11.7mph /  18.8km/h 21.9mph /  35.2km/h 38.9% 0in /  0.0mm
11:39 59.4 °F /  15.2 °C 34.3 °F /  1.3 °C 29.9in /  1013.9hPa Oeste 11.4mph /  18.4km/h 24.2mph /  38.9km/h 39% 0in /  0.0mm
11:44 59.5 °F /  15.3 °C 34.2 °F /  1.2 °C 29.9in /  1013.7hPa Oeste 11.4mph /  18.4km/h 24.8mph /  39.9km/h 38.5% 0in /  0.0mm
11:49 59.5 °F /  15.3 °C 34 °F /  1.1 °C 29.9in /  1013.7hPa Oeste 11.4mph /  18.4km/h 25.3mph /  40.7km/h 38.3% 0in /  0.0mm
11:54 59.5 °F /  15.3 °C 34.2 °F /  1.2 °C 29.9in /  1013.8hPa Oeste 11.2mph /  18.1km/h 21mph /  33.8km/h 38.3% 0in /  0.0mm
11:59 59.5 °F /  15.3 °C 34 °F /  1.1 °C 29.9in /  1013.8hPa ONO 11.2mph /  18km/h 20.7mph /  33.3km/h 38% 0in /  0.0mm
12:04 59.5 °F /  15.3 °C 34 °F /  1.1 °C 29.9in /  1013.8hPa ONO 11.7mph /  18.8km/h 21.9mph /  35.2km/h 38% 0in /  0.0mm
12:09 59.7 °F /  15.4 °C 34.2 °F /  1.2 °C 29.9in /  1013.8hPa ONO 11.8mph /  19km/h 22mph /  35.4km/h 38% 0in /  0.0mm
12:14 60.1 °F /  15.6 °C 33.6 °F /  0.9 °C 29.9in /  1013.8hPa Oeste 11.5mph /  18.5km/h 23.5mph /  37.8km/h 36.9% 0in /  0.0mm
12:19 60.3 °F /  15.7 °C 33.3 °F /  0.7 °C 29.9in /  1013.8hPa Oeste 11.4mph /  18.4km/h 23mph /  37km/h 36.2% 0in /  0.0mm
12:24 60.3 °F /  15.7 °C 33.3 °F /  0.7 °C 29.9in /  1013.8hPa Oeste 13mph /  21km/h 22mph /  35.4km/h 36.2% 0in /  0.0mm
12:29 60.3 °F /  15.7 °C 33.4 °F /  0.8 °C 29.9in /  1013.8hPa Oeste 13.5mph /  21.7km/h 23.5mph /  37.8km/h 36.2% 0in /  0.0mm
12:34 60.3 °F /  15.7 °C 33.3 °F /  0.7 °C 29.9in /  1013.8hPa OSO 11.6mph /  18.7km/h 23mph /  37km/h 36.2% 0in /  0.0mm
12:39 60.6 °F /  15.9 °C 33.4 °F /  0.8 °C 29.9in /  1013.8hPa Oeste 11.2mph /  18km/h 19mph /  30.6km/h 36.1% 0in /  0.0mm
12:44 60.4 °F /  15.8 °C 33.3 °F /  0.7 °C 29.9in /  1013.6hPa Oeste 10.8mph /  17.4km/h 17mph /  27.4km/h 36% 0in /  0.0mm
12:49 60.6 °F /  15.9 °C 33.6 °F /  0.9 °C 29.9in /  1013.6hPa Oeste 10.7mph /  17.2km/h 17.3mph /  27.8km/h 36% 0in /  0.0mm
12:54 61 °F /  16.1 °C 33.6 °F /  0.9 °C 29.9in /  1013.6hPa Oeste 8.1mph /  13.1km/h 17mph /  27.4km/h 35.9% 0in /  0.0mm
12:59 61.2 °F /  16.2 °C 33.3 °F /  0.7 °C 29.9in /  1013.5hPa Oeste 7.6mph /  12.2km/h 19.6mph /  31.5km/h 35.1% 0in /  0.0mm
13:04 61.2 °F /  16.2 °C 33.4 °F /  0.8 °C 29.9in /  1013.5hPa Oeste 8.5mph /  13.7km/h 20mph /  32.2km/h 35.4% 0in /  0.0mm
13:09 61.2 °F /  16.2 °C 33.3 °F /  0.7 °C 29.9in /  1013.5hPa Oeste 8.7mph /  14km/h 19.7mph /  31.7km/h 35% 0in /  0.0mm
13:14 61 °F /  16.1 °C 33.1 °F /  0.6 °C 29.9in /  1013.4hPa OSO 10.3mph /  16.6km/h 20mph /  32.2km/h 35% 0in /  0.0mm
13:19 61 °F /  16.1 °C 33.1 °F /  0.6 °C 29.9in /  1013.4hPa Oeste 10.7mph /  17.2km/h 20mph /  32.2km/h 35% 0in /  0.0mm
13:24 61.2 °F /  16.2 °C 33.3 °F /  0.7 °C 29.9in /  1013.4hPa Oeste 9.9mph /  15.9km/h 19mph /  30.6km/h 35.1% 0in /  0.0mm
13:29 61.3 °F /  16.3 °C 33.4 °F /  0.8 °C 29.9in /  1013.2hPa Oeste 9.7mph /  15.6km/h 25.3mph /  40.7km/h 35% 0in /  0.0mm
13:34 61.3 °F /  16.3 °C 33.3 °F /  0.7 °C 29.9in /  1013.2hPa Oeste 10.1mph /  16.3km/h 25mph /  40.2km/h 34.8% 0in /  0.0mm
13:39 61.3 °F /  16.3 °C 33.3 °F /  0.7 °C 29.9in /  1013.2hPa OSO 10.2mph /  16.4km/h 16.3mph /  26.2km/h 34.6% 0in /  0.0mm
13:44 61.5 °F /  16.4 °C 32.9 °F /  0.5 °C 29.9in /  1013.0hPa Oeste 9.4mph /  15.1km/h 23.7mph /  38.1km/h 34% 0in /  0.0mm
13:49 61.5 °F /  16.4 °C 32.7 °F /  0.4 °C 29.9in /  1013.0hPa Oeste 9.2mph /  14.8km/h 24.2mph /  38.9km/h 33.9% 0in /  0.0mm
13:54 61.5 °F /  16.4 °C 32.9 °F /  0.5 °C 29.9in /  1013.1hPa Oeste 11.9mph /  19.1km/h 24mph /  38.6km/h 34% 0in /  0.0mm
13:59 61.9 °F /  16.6 °C 33.1 °F /  0.6 °C 29.9in /  1013.1hPa Oeste 12.5mph /  20.1km/h 20mph /  32.2km/h 34% 0in /  0.0mm
14:04 62.1 °F /  16.7 °C 33.4 °F /  0.8 °C 29.9in /  1013.1hPa Oeste 10.1mph /  16.3km/h 20.7mph /  33.3km/h 34% 0in /  0.0mm
14:09 62.1 °F /  16.7 °C 33.1 °F /  0.6 °C 29.9in /  1013.1hPa Oeste 9.7mph /  15.6km/h 21.3mph /  34.3km/h 33.7% 0in /  0.0mm
14:14 62.4 °F /  16.9 °C 33.4 °F /  0.8 °C 29.9in /  1013.0hPa Oeste 10.5mph /  16.9km/h 21.3mph /  34.3km/h 33.7% 0in /  0.0mm
14:19 62.4 °F /  16.9 °C 33.1 °F /  0.6 °C 29.9in /  1013.0hPa Oeste 10.7mph /  17.2km/h 21.5mph /  34.6km/h 33.1% 0in /  0.0mm
14:24 62.2 °F /  16.8 °C 33.3 °F /  0.7 °C 29.9in /  1013.0hPa ONO 12mph /  19.3km/h 22mph /  35.4km/h 33.6% 0in /  0.0mm
14:29 62.4 °F /  16.9 °C 33.4 °F /  0.8 °C 29.9in /  1013.0hPa Oeste 12.3mph /  19.8km/h 24.6mph /  39.6km/h 33.6% 0in /  0.0mm
14:34 62.6 °F /  17 °C 33.1 °F /  0.6 °C 29.9in /  1013.0hPa Oeste 11.6mph /  18.6km/h 25mph /  40.2km/h 33% 0in /  0.0mm
14:39 62.6 °F /  17 °C 33.1 °F /  0.6 °C 29.9in /  1013.0hPa Oeste 11.4mph /  18.4km/h 24mph /  38.6km/h 33% 0in /  0.0mm
14:44 62.8 °F /  17.1 °C 33.3 °F /  0.7 °C 29.9in /  1013.0hPa Oeste 11.7mph /  18.9km/h 23mph /  37km/h 33% 0in /  0.0mm
14:49 63 °F /  17.2 °C 33.3 °F /  0.7 °C 29.9in /  1013.0hPa Oeste 11.8mph /  19km/h 21mph /  33.8km/h 33% 0in /  0.0mm
14:54 63.1 °F /  17.3 °C 33.3 °F /  0.7 °C 29.9in /  1013.0hPa Oeste 10.9mph /  17.6km/h 19mph /  30.6km/h 32.8% 0in /  0.0mm
14:59 63.1 °F /  17.3 °C 33.4 °F /  0.8 °C 29.9in /  1013.0hPa Oeste 10.7mph /  17.2km/h 19.7mph /  31.7km/h 32.9% 0in /  0.0mm
15:04 63.1 °F /  17.3 °C 33.4 °F /  0.8 °C 29.9in /  1013.0hPa ONO 10.7mph /  17.2km/h 20mph /  32.2km/h 33% 0in /  0.0mm
15:09 63.1 °F /  17.3 °C 33.3 °F /  0.7 °C 29.9in /  1013.0hPa Oeste 10.7mph /  17.2km/h 20.1mph /  32.3km/h 32.6% 0in /  0.0mm
15:14 63.1 °F /  17.3 °C 33.3 °F /  0.7 °C 29.9in /  1013.0hPa Oeste 11.2mph /  18.1km/h 23mph /  37km/h 32.7% 0in /  0.0mm
15:19 63.1 °F /  17.3 °C 33.4 °F /  0.8 °C 29.9in /  1013.0hPa ONO 11.4mph /  18.4km/h 23mph /  37km/h 33% 0in /  0.0mm
15:24 63.1 °F /  17.3 °C 33.4 °F /  0.8 °C 29.9in /  1013.1hPa ONO 11.4mph /  18.4km/h 22mph /  35.4km/h 33% 0in /  0.0mm
15:29 63.1 °F /  17.3 °C 33.4 °F /  0.8 °C 29.9in /  1013.1hPa ONO 11.4mph /  18.4km/h 20mph /  32.2km/h 33% 0in /  0.0mm
15:34 63.5 °F /  17.5 °C 33.8 °F /  1 °C 29.9in /  1013.1hPa OSO 9.2mph /  14.8km/h 13.7mph /  22km/h 33% 0in /  0.0mm
15:39 63.7 °F /  17.6 °C 33.4 °F /  0.8 °C 29.9in /  1013.3hPa Oeste 8.7mph /  14km/h 18.4mph /  29.6km/h 32.2% 0in /  0.0mm
15:44 63.3 °F /  17.4 °C 33.8 °F /  1 °C 29.9in /  1013.3hPa Oeste 8.7mph /  14km/h 19.7mph /  31.7km/h 33% 0in /  0.0mm
15:49 63.7 °F /  17.6 °C 34 °F /  1.1 °C 29.9in /  1013.3hPa OSO 8.7mph /  14km/h 20mph /  32.2km/h 33% 0in /  0.0mm
15:54 63.7 °F /  17.6 °C 33.6 °F /  0.9 °C 29.9in /  1013.4hPa OSO 9.1mph /  14.7km/h 17.3mph /  27.8km/h 32.6% 0in /  0.0mm
15:59 63.3 °F /  17.4 °C 33.3 °F /  0.7 °C 29.9in /  1013.4hPa OSO 9.2mph /  14.8km/h 19.6mph /  31.5km/h 32.3% 0in /  0.0mm
16:04 63.3 °F /  17.4 °C 33.3 °F /  0.7 °C 29.9in /  1013.4hPa OSO 10.1mph /  16.2km/h 20.7mph /  33.3km/h 32.2% 0in /  0.0mm
16:09 63.5 °F /  17.5 °C 33.3 °F /  0.7 °C 29.9in /  1013.5hPa Oeste 10.2mph /  16.4km/h 21mph /  33.8km/h 32.2% 0in /  0.0mm
16:14 63.5 °F /  17.5 °C 33.3 °F /  0.7 °C 29.9in /  1013.5hPa ONO 10.6mph /  17.1km/h 18mph /  29km/h 32.2% 0in /  0.0mm
16:19 63.3 °F /  17.4 °C 33.3 °F /  0.7 °C 29.9in /  1013.5hPa Oeste 10.7mph /  17.2km/h 17.3mph /  27.8km/h 32.4% 0in /  0.0mm
16:24 63.3 °F /  17.4 °C 33.4 °F /  0.8 °C 29.9in /  1013.6hPa OSO 9.9mph /  15.9km/h 17mph /  27.4km/h 32.5% 0in /  0.0mm
16:29 63.7 °F /  17.6 °C 34 °F /  1.1 °C 29.9in /  1013.6hPa OSO 9.7mph /  15.6km/h 15mph /  24.1km/h 33% 0in /  0.0mm
16:34 63.9 °F /  17.7 °C 34.2 °F /  1.2 °C 29.9in /  1013.6hPa Oeste 6.6mph /  10.6km/h 12mph /  19.3km/h 33% 0in /  0.0mm
16:39 63.9 °F /  17.7 °C 33.6 °F /  0.9 °C 29.9in /  1013.8hPa OSO 5.9mph /  9.5km/h 19mph /  30.6km/h 32.3% 0in /  0.0mm
16:44 63.7 °F /  17.6 °C 33.3 °F /  0.7 °C 29.9in /  1013.8hPa Oeste 9mph /  14.5km/h 19mph /  30.6km/h 32.2% 0in /  0.0mm
16:49 63.5 °F /  17.5 °C 33.3 °F /  0.7 °C 29.9in /  1013.8hPa OSO 9.7mph /  15.6km/h 17.3mph /  27.8km/h 32.1% 0in /  0.0mm
16:54 63.3 °F /  17.4 °C 33.3 °F /  0.7 °C 29.9in /  1014.0hPa Oeste 9.7mph /  15.6km/h 17.3mph /  27.8km/h 32.3% 0in /  0.0mm
16:59 63.3 °F /  17.4 °C 33.6 °F /  0.9 °C 29.9in /  1014.0hPa OSO 9.7mph /  15.6km/h 17mph /  27.4km/h 32.9% 0in /  0.0mm
17:04 63.3 °F /  17.4 °C 33.3 °F /  0.7 °C 29.9in /  1014.0hPa OSO 7.7mph /  12.4km/h 14mph /  22.5km/h 32.4% 0in /  0.0mm
17:09 63.3 °F /  17.4 °C 32.9 °F /  0.5 °C 29.9in /  1014.0hPa OSO 7.4mph /  11.9km/h 17.5mph /  28.2km/h 32% 0in /  0.0mm
17:14 63.3 °F /  17.4 °C 33.4 °F /  0.8 °C 29.9in /  1014.0hPa OSO 8.9mph /  14.3km/h 17mph /  27.4km/h 32.7% 0in /  0.0mm
17:19 63.1 °F /  17.3 °C 33.4 °F /  0.8 °C 29.9in /  1014.0hPa OSO 9.2mph /  14.8km/h 17mph /  27.4km/h 32.8% 0in /  0.0mm
17:24 63.1 °F /  17.3 °C 33.3 °F /  0.7 °C 30in /  1014.2hPa OSO 7.9mph /  12.7km/h 17.3mph /  27.8km/h 32.6% 0in /  0.0mm
17:29 63 °F /  17.2 °C 33.3 °F /  0.7 °C 30in /  1014.2hPa OSO 7.6mph /  12.2km/h 17mph /  27.4km/h 32.9% 0in /  0.0mm
17:34 62.8 °F /  17.1 °C 33.1 °F /  0.6 °C 30in /  1014.2hPa OSO 8.9mph /  14.4km/h 17.3mph /  27.8km/h 32.7% 0in /  0.0mm
17:39 62.8 °F /  17.1 °C 33.3 °F /  0.7 °C 30in /  1014.2hPa OSO 9.2mph /  14.8km/h 16mph /  25.7km/h 33% 0in /  0.0mm
17:44 62.4 °F /  16.9 °C 32.9 °F /  0.5 °C 30in /  1014.2hPa OSO 8.3mph /  13.4km/h 17.3mph /  27.8km/h 33% 0in /  0.0mm
17:49 62.4 °F /  16.9 °C 32.9 °F /  0.5 °C 30in /  1014.2hPa OSO 8.1mph /  13km/h 18.4mph /  29.6km/h 33% 0in /  0.0mm
17:54 62.2 °F /  16.8 °C 32.7 °F /  0.4 °C 30in /  1014.5hPa OSO 9.6mph /  15.5km/h 18mph /  29km/h 33% 0in /  0.0mm
17:59 62.1 °F /  16.7 °C 32.7 °F /  0.4 °C 30in /  1014.5hPa OSO 10mph /  16.1km/h 13mph /  20.9km/h 33.2% 0in /  0.0mm
18:04 62.1 °F /  16.7 °C 32.9 °F /  0.5 °C 30in /  1014.5hPa OSO 7.3mph /  11.8km/h 12.7mph /  20.4km/h 33.7% 0in /  0.0mm
18:09 61.9 °F /  16.6 °C 33.1 °F /  0.6 °C 30in /  1014.8hPa OSO 6.9mph /  11.1km/h 13mph /  20.9km/h 33.9% 0in /  0.0mm
18:14 61.5 °F /  16.4 °C 32.9 °F /  0.5 °C 30in /  1014.8hPa OSO 7.3mph /  11.8km/h 15.2mph /  24.5km/h 34% 0in /  0.0mm
18:19 61.5 °F /  16.4 °C 32.9 °F /  0.5 °C 30in /  1014.8hPa OSO 7.4mph /  11.9km/h 16.1mph /  25.9km/h 34% 0in /  0.0mm
18:24 61.3 °F /  16.3 °C 32.7 °F /  0.4 °C 30in /  1015.0hPa OSO 8.3mph /  13.4km/h 16.1mph /  25.9km/h 34% 0in /  0.0mm
18:29 61.2 °F /  16.2 °C 32.5 °F /  0.3 °C 30in /  1015.0hPa OSO 8.5mph /  13.7km/h 16mph /  25.7km/h 34% 0in /  0.0mm
18:34 61.2 °F /  16.2 °C 32.5 °F /  0.3 °C 30in /  1015.0hPa OSO 7.8mph /  12.5km/h 14.7mph /  23.7km/h 34% 0in /  0.0mm
18:39 61.2 °F /  16.2 °C 32.5 °F /  0.3 °C 30in /  1015.3hPa OSO 7.6mph /  12.2km/h 15mph /  24.1km/h 34% 0in /  0.0mm
18:44 61.2 °F /  16.2 °C 32.5 °F /  0.3 °C 30in /  1015.3hPa OSO 7.6mph /  12.2km/h 14mph /  22.5km/h 34% 0in /  0.0mm
18:49 61.2 °F /  16.2 °C 32.5 °F /  0.3 °C 30in /  1015.3hPa OSO 7.6mph /  12.2km/h 13.8mph /  22.2km/h 34% 0in /  0.0mm
18:54 61.2 °F /  16.2 °C 32.5 °F /  0.3 °C 30in /  1015.6hPa SO 7.6mph /  12.2km/h 14mph /  22.5km/h 34% 0in /  0.0mm
18:59 61 °F /  16.1 °C 32.9 °F /  0.5 °C 30in /  1015.6hPa SO 7.6mph /  12.2km/h 13mph /  20.9km/h 34.8% 0in /  0.0mm
19:04 60.8 °F /  16 °C 32.9 °F /  0.5 °C 30in /  1015.6hPa SO 6.4mph /  10.3km/h 11mph /  17.7km/h 35% 0in /  0.0mm
19:09 60.6 °F /  15.9 °C 32.9 °F /  0.5 °C 30in /  1015.9hPa SO 6.2mph /  10km/h 11mph /  17.7km/h 35% 0in /  0.0mm
19:14 60.6 °F /  15.9 °C 32.7 °F /  0.4 °C 30in /  1015.9hPa SO 6mph /  9.6km/h 11mph /  17.7km/h 35% 0in /  0.0mm
19:19 60.6 °F /  15.9 °C 33.1 °F /  0.6 °C 30in /  1015.9hPa SSO 5.9mph /  9.5km/h 11mph /  17.7km/h 35.4% 0in /  0.0mm
19:24 60.4 °F /  15.8 °C 33.3 °F /  0.7 °C 30in /  1015.9hPa SO 6.2mph /  9.9km/h 10mph /  16.1km/h 36% 0in /  0.0mm
19:29 60.3 °F /  15.7 °C 33.3 °F /  0.7 °C 30in /  1015.8hPa SO 6.2mph /  10km/h 11.5mph /  18.5km/h 36% 0in /  0.0mm
19:34 60.1 °F /  15.6 °C 33.1 °F /  0.6 °C 30in /  1015.8hPa SO 6.3mph /  10.2km/h 12.7mph /  20.4km/h 36% 0in /  0.0mm
19:39 60.1 °F /  15.6 °C 33.1 °F /  0.6 °C 30in /  1016.1hPa SO 6.4mph /  10.3km/h 14mph /  22.5km/h 36% 0in /  0.0mm
19:44 59.9 °F /  15.5 °C 33.1 °F /  0.6 °C 30in /  1016.1hPa SO 6.8mph /  11km/h 15mph /  24.1km/h 36.3% 0in /  0.0mm
19:49 59.7 °F /  15.4 °C 33.4 °F /  0.8 °C 30in /  1016.1hPa SO 6.9mph /  11.1km/h 15mph /  24.1km/h 37% 0in /  0.0mm
19:54 59.7 °F /  15.4 °C 33.4 °F /  0.8 °C 30in /  1016.1hPa SO 7.5mph /  12km/h 14mph /  22.5km/h 37% 0in /  0.0mm
19:59 59.5 °F /  15.3 °C 33.3 °F /  0.7 °C 30in /  1016.1hPa OSO 7.6mph /  12.2km/h 15.2mph /  24.5km/h 37% 0in /  0.0mm
20:04 59.5 °F /  15.3 °C 33.3 °F /  0.7 °C 30in /  1016.1hPa SO 7.6mph /  12.2km/h 15mph /  24.1km/h 37% 0in /  0.0mm
20:09 59.5 °F /  15.3 °C 33.3 °F /  0.7 °C 30in /  1016.2hPa OSO 7.6mph /  12.2km/h 13mph /  20.9km/h 37% 0in /  0.0mm
20:14 59.5 °F /  15.3 °C 33.3 °F /  0.7 °C 30in /  1016.2hPa OSO 7.6mph /  12.2km/h 15.2mph /  24.5km/h 37% 0in /  0.0mm
20:19 59.5 °F /  15.3 °C 33.3 °F /  0.7 °C 30in /  1016.2hPa OSO 7.6mph /  12.2km/h 17.8mph /  28.6km/h 37% 0in /  0.0mm
20:24 59.7 °F /  15.4 °C 33.3 °F /  0.7 °C 30in /  1016.3hPa SO 8.5mph /  13.7km/h 18.4mph /  29.6km/h 36.8% 0in /  0.0mm
20:29 59.7 °F /  15.4 °C 32.7 °F /  0.4 °C 30in /  1016.3hPa OSO 8.7mph /  14km/h 17.3mph /  27.8km/h 36% 0in /  0.0mm
20:34 59.7 °F /  15.4 °C 33.3 °F /  0.7 °C 30in /  1016.3hPa SO 8.5mph /  13.7km/h 16mph /  25.7km/h 36.8% 0in /  0.0mm
20:39 59.5 °F /  15.3 °C 33.3 °F /  0.7 °C 30in /  1016.5hPa OSO 8.5mph /  13.7km/h 15mph /  24.1km/h 37% 0in /  0.0mm
20:44 59.5 °F /  15.3 °C 33.3 °F /  0.7 °C 30in /  1016.5hPa SO 7.6mph /  12.2km/h 15mph /  24.1km/h 37% 0in /  0.0mm
20:49 59.5 °F /  15.3 °C 33.3 °F /  0.7 °C 30in /  1016.5hPa SO 7.4mph /  11.9km/h 17.5mph /  28.2km/h 37% 0in /  0.0mm
20:54 59.5 °F /  15.3 °C 33.3 °F /  0.7 °C 30in /  1016.7hPa SO 7.4mph /  11.9km/h 17mph /  27.4km/h 37% 0in /  0.0mm
20:59 59.5 °F /  15.3 °C 33.3 °F /  0.7 °C 30in /  1016.7hPa SO 7.4mph /  11.9km/h 10.7mph /  17.2km/h 37% 0in /  0.0mm
21:04 59.5 °F /  15.3 °C 33.3 °F /  0.7 °C 30in /  1016.7hPa SSO 5.7mph /  9.2km/h 11mph /  17.7km/h 37% 0in /  0.0mm
21:09 59.5 °F /  15.3 °C 33.3 °F /  0.7 °C 30in /  1017.0hPa SSO 5.4mph /  8.7km/h 11.4mph /  18.3km/h 37% 0in /  0.0mm
21:14 59.5 °F /  15.3 °C 33.3 °F /  0.7 °C 30in /  1017.0hPa SSO 6.1mph /  9.8km/h 12.7mph /  20.4km/h 37% 0in /  0.0mm
21:19 59.5 °F /  15.3 °C 33.1 °F /  0.6 °C 30in /  1017.0hPa Sur 6.2mph /  10km/h 13mph /  20.9km/h 37% 0in /  0.0mm
21:24 59.4 °F /  15.2 °C 33.1 °F /  0.6 °C 30in /  1017.0hPa Sur 6.3mph /  10.2km/h 11.5mph /  18.5km/h 37% 0in /  0.0mm
21:29 59.2 °F /  15.1 °C 32.9 °F /  0.5 °C 30in /  1017.0hPa Sur 6.4mph /  10.3km/h 12mph /  19.3km/h 37% 0in /  0.0mm
21:34 59 °F /  15 °C 32.7 °F /  0.4 °C 30in /  1017.0hPa SSO 6.4mph /  10.3km/h 12mph /  19.3km/h 37% 0in /  0.0mm
21:39 58.8 °F /  14.9 °C 32.9 °F /  0.5 °C 30in /  1017.0hPa Sur 6.4mph /  10.3km/h 9mph /  14.5km/h 37.4% 0in /  0.0mm
21:44 58.8 °F /  14.9 °C 32.9 °F /  0.5 °C 30in /  1017.0hPa Sur 5mph /  8.1km/h 8.7mph /  14km/h 37.6% 0in /  0.0mm
21:49 58.6 °F /  14.8 °C 32.7 °F /  0.4 °C 30in /  1017.0hPa Sur 4.7mph /  7.6km/h 9.2mph /  14.8km/h 37.5% 0in /  0.0mm
21:54 58.5 °F /  14.7 °C 32.9 °F /  0.5 °C 30in /  1017.1hPa Sur 5.7mph /  9.1km/h 9.7mph /  15.6km/h 38% 0in /  0.0mm
21:59 58.3 °F /  14.6 °C 32.7 °F /  0.4 °C 30in /  1017.1hPa SSE 5.9mph /  9.5km/h 10.7mph /  17.2km/h 38% 0in /  0.0mm
22:04 58.3 °F /  14.6 °C 32.9 °F /  0.5 °C 30in /  1017.1hPa SSE 6.3mph /  10.2km/h 15.2mph /  24.5km/h 38% 0in /  0.0mm
22:09 58.5 °F /  14.7 °C 32.9 °F /  0.5 °C 30in /  1017.3hPa Sur 6.4mph /  10.3km/h 16.1mph /  25.9km/h 38% 0in /  0.0mm
22:14 58.5 °F /  14.7 °C 32.9 °F /  0.5 °C 30in /  1017.3hPa SSO 7.8mph /  12.5km/h 16mph /  25.7km/h 38% 0in /  0.0mm
22:19 58.5 °F /  14.7 °C 32.9 °F /  0.5 °C 30in /  1017.3hPa SSO 8.1mph /  13km/h 13mph /  20.9km/h 38% 0in /  0.0mm
22:24 58.3 °F /  14.6 °C 33.4 °F /  0.8 °C 30.1in /  1017.5hPa SSO 7.1mph /  11.5km/h 13mph /  20.9km/h 39% 0in /  0.0mm
22:29 57.9 °F /  14.4 °C 33.1 °F /  0.6 °C 30.1in /  1017.5hPa SSO 6.9mph /  11.1km/h 13.7mph /  22km/h 39% 0in /  0.0mm
22:34 58.3 °F /  14.6 °C 33.3 °F /  0.7 °C 30.1in /  1017.5hPa SSO 7.9mph /  12.7km/h 14mph /  22.5km/h 38.9% 0in /  0.0mm
22:39 58.6 °F /  14.8 °C 33.1 °F /  0.6 °C 30.1in /  1017.5hPa SSO 8.1mph /  13km/h 15mph /  24.1km/h 38% 0in /  0.0mm
22:44 58.5 °F /  14.7 °C 32.9 °F /  0.5 °C 30.1in /  1017.5hPa SSO 7.7mph /  12.4km/h 15.2mph /  24.5km/h 38% 0in /  0.0mm
22:49 58.3 °F /  14.6 °C 32.9 °F /  0.5 °C 30.1in /  1017.5hPa SSO 7.6mph /  12.2km/h 15mph /  24.1km/h 38.2% 0in /  0.0mm
22:54 58.1 °F /  14.5 °C 33.3 °F /  0.7 °C 30.1in /  1017.7hPa SSO 8.3mph /  13.4km/h 13.5mph /  21.7km/h 39% 0in /  0.0mm
22:59 57.7 °F /  14.3 °C 33.3 °F /  0.7 °C 30.1in /  1017.7hPa SSO 8.5mph /  13.7km/h 13mph /  20.9km/h 39.3% 0in /  0.0mm
23:04 57.6 °F /  14.2 °C 33.3 °F /  0.7 °C 30.1in /  1017.7hPa SSO 7.1mph /  11.5km/h 12.5mph /  20.1km/h 40% 0in /  0.0mm
23:09 57.2 °F /  14 °C 33.1 °F /  0.6 °C 30.1in /  1017.8hPa SSO 6.9mph /  11.1km/h 13mph /  20.9km/h 40% 0in /  0.0mm
23:14 57.2 °F /  14 °C 33.6 °F /  0.9 °C 30.1in /  1017.8hPa SSO 7.3mph /  11.8km/h 12mph /  19.3km/h 41% 0in /  0.0mm
23:19 57 °F /  13.9 °C 33.4 °F /  0.8 °C 30.1in /  1017.8hPa SSO 7.4mph /  11.9km/h 11mph /  17.7km/h 41% 0in /  0.0mm
23:24 57 °F /  13.9 °C 33.4 °F /  0.8 °C 30.1in /  1017.9hPa SO 7.4mph /  11.9km/h 11.5mph /  18.5km/h 41% 0in /  0.0mm
23:29 57 °F /  13.9 °C 33.6 °F /  0.9 °C 30.1in /  1017.9hPa SSO 7.4mph /  11.9km/h 15.2mph /  24.5km/h 41% 0in /  0.0mm
23:34 57.4 °F /  14.1 °C 33.8 °F /  1 °C 30.1in /  1017.9hPa SSO 8mph /  12.8km/h 15mph /  24.1km/h 40.7% 0in /  0.0mm
23:39 57.6 °F /  14.2 °C 33.4 °F /  0.8 °C 30.1in /  1017.9hPa SSO 8.1mph /  13km/h 14mph /  22.5km/h 40% 0in /  0.0mm
23:44 57.7 °F /  14.3 °C 33.6 °F /  0.9 °C 30.1in /  1017.9hPa SO 8.4mph /  13.6km/h 14mph /  22.5km/h 40% 0in /  0.0mm
23:49 57.7 °F /  14.3 °C 33.4 °F /  0.8 °C 30.1in /  1017.9hPa SO 8.5mph /  13.7km/h 13mph /  20.9km/h 39.8% 0in /  0.0mm
23:54 57.7 °F /  14.3 °C 33.1 °F /  0.6 °C 30.1in /  1017.9hPa SO 7.2mph /  11.6km/h 12.3mph /  19.8km/h 39.3% 0in /  0.0mm
23:59 57.6 °F /  14.2 °C 32.7 °F /  0.4 °C 30.1in /  1017.9hPa SO 6.9mph /  11.1km/h 13mph /  20.9km/h 39% 0in /  0.0mm
Murcia-Puente Tocinos, Espa?a
Compliments of Weather Underground - 3.25 mb

La estación de MeteoMurcia.com, publica sus datos en los siguientes proyectos:

Weather Underground PWS IMURCIAP2 Meteoclimatic www.awekas.at

W3Counter
Web Analytics